Time;durP1;ratioP1;P1;durP2;ratioP2;P2;SDS_P1;SDS_P2;PMS_P1;PMS_P2;Temp;Humidity;BMP_temperature;BMP_pressure;BME280_temperature;BME280_humidity;BME280_pressure;Samples;Min_cycle;Max_cycle;Signal;HPM_P1;HPM_P2
2023/12/04 00:00:17;;;;;;;;;;;;;;;-0.90;80.54;100428.53;5076356;28;19924;-72
2023/12/04 00:02:46;;;;;;;;;;;;;;;-0.88;80.15;100434.50;5075791;28;19943;-72
2023/12/04 00:05:16;;;;;;;;;;;;;;;-0.85;80.16;100428.81;5076250;28;19920;-72
2023/12/04 00:07:44;;;;;;;;;;;;;;;-0.85;80.14;100421.28;5075892;28;19920;-72
2023/12/04 00:10:12;;;;;;;;;;;;;;;-0.83;79.80;100422.22;5075861;28;20392;-72
2023/12/04 00:12:41;;;;;;;;;;;;;;;-0.79;80.34;100424.13;5075810;28;20331;-72
2023/12/04 00:15:10;;;;;;;;;;;;;;;-0.75;79.63;100424.41;5076027;28;19928;-70
2023/12/04 00:17:39;;;;;;;;;;;;;;;-0.71;79.69;100417.91;5091538;28;19920;-72
2023/12/04 00:20:09;;;;;;;;;;;;;;;-0.72;79.52;100416.19;5075725;28;19921;-72
2023/12/04 00:22:39;;;;;;;;;;;;;;;-0.75;79.60;100426.91;5075649;28;19947;-72
2023/12/04 00:25:08;;;;;;;;;;;;;;;-0.81;79.04;100425.69;5075401;28;19927;-72
2023/12/04 00:27:37;;;;;;;;;;;;;;;-0.84;78.51;100418.00;5075366;28;19978;-72
2023/12/04 00:30:06;;;;;;;;;;;;;;;-0.87;78.48;100430.38;5075188;28;20367;-72
2023/12/04 00:32:34;;;;;;;;;;;;;;;-0.88;78.87;100426.13;5075405;28;19967;-72
2023/12/04 00:35:03;;;;;;;;;;;;;;;-0.88;78.53;100428.63;5075328;28;20367;-72
2023/12/04 00:37:32;;;;;;;;;;;;;;;-0.92;78.46;100432.63;5075512;28;20397;-73
2023/12/04 00:40:02;;;;;;;;;;;;;;;-0.89;78.65;100421.91;5075506;28;19966;-72
2023/12/04 00:42:31;;;;;;;;;;;;;;;-0.91;78.35;100428.47;5075282;28;20301;-72
2023/12/04 00:44:59;;;;;;;;;;;;;;;-0.98;78.30;100426.38;5075289;28;19920;-72
2023/12/04 00:47:28;;;;;;;;;;;;;;;-1.05;78.78;100421.78;5075604;28;20294;-73
2023/12/04 00:49:56;;;;;;;;;;;;;;;-1.11;78.50;100419.81;5075363;28;19924;-72
2023/12/04 00:52:25;;;;;;;;;;;;;;;-1.17;79.12;100429.47;5075286;28;19971;-72
2023/12/04 00:54:53;;;;;;;;;;;;;;;-1.20;79.37;100426.78;5075281;28;19920;-72
2023/12/04 00:57:23;;;;;;;;;;;;;;;-1.22;79.37;100430.00;5075195;28;19920;-72
2023/12/04 00:59:52;;;;;;;;;;;;;;;-1.23;79.80;100435.78;5075126;28;19927;-72
2023/12/04 01:02:20;;;;;;;;;;;;;;;-1.21;79.80;100436.72;5074618;28;19921;-72
2023/12/04 01:04:49;;;;;;;;;;;;;;;-1.20;79.63;100439.31;5090917;28;19920;-72
2023/12/04 01:07:17;;;;;;;;;;;;;;;-1.21;79.53;100436.72;5074769;28;19943;-72
2023/12/04 01:09:46;;;;;;;;;;;;;;;-1.24;79.83;100434.03;5073248;28;19926;-72
2023/12/04 01:12:14;;;;;;;;;;;;;;;-1.26;79.99;100433.97;5074487;28;20366;-73
2023/12/04 01:14:44;;;;;;;;;;;;;;;-1.26;79.89;100431.47;5074527;28;19921;-72
2023/12/04 01:17:13;;;;;;;;;;;;;;;-1.23;80.07;100426.63;5074838;28;19921;-72
2023/12/04 01:19:41;;;;;;;;;;;;;;;-1.23;79.66;100423.25;5074724;28;19927;-72
2023/12/04 01:22:10;;;;;;;;;;;;;;;-1.10;79.81;100420.66;5074727;28;20015;-72
2023/12/04 01:24:39;;;;;;;;;;;;;;;-1.08;79.33;100424.16;5074623;28;19967;-72
2023/12/04 01:27:07;;;;;;;;;;;;;;;-1.01;79.73;100431.22;5074539;28;19964;-72
2023/12/04 01:29:36;;;;;;;;;;;;;;;-0.97;79.55;100431.50;5074250;28;19927;-73
2023/12/04 01:32:06;;;;;;;;;;;;;;;-1.05;79.60;100430.19;5074596;28;19920;-72
2023/12/04 01:34:35;;;;;;;;;;;;;;;-1.07;79.70;100423.34;5074633;28;20015;-73
2023/12/04 01:37:03;;;;;;;;;;;;;;;-1.06;79.80;100427.59;5074556;28;20309;-72
2023/12/04 01:39:32;;;;;;;;;;;;;;;-1.08;79.56;100429.16;5074376;28;19959;-72
2023/12/04 01:42:01;;;;;;;;;;;;;;;-1.11;80.07;100429.84;5073821;28;19965;-72
2023/12/04 01:44:29;;;;;;;;;;;;;;;-1.01;80.22;100426.22;5074437;28;19931;-72
2023/12/04 01:46:58;;;;;;;;;;;;;;;-0.91;80.07;100428.47;5074061;28;20020;-72
2023/12/04 01:49:28;;;;;;;;;;;;;;;-0.97;80.22;100428.97;5074583;28;20282;-72
2023/12/04 01:51:58;;;;;;;;;;;;;;;-0.99;80.45;100429.66;5089710;28;19920;-72
2023/12/04 01:54:26;;;;;;;;;;;;;;;-0.99;80.18;100424.66;5074331;28;19920;-73
2023/12/04 01:56:55;;;;;;;;;;;;;;;-1.06;80.30;100427.59;5074291;28;20009;-73
2023/12/04 01:59:24;;;;;;;;;;;;;;;-1.07;80.08;100421.72;5072981;28;19931;-72
2023/12/04 02:01:52;;;;;;;;;;;;;;;-1.04;80.57;100426.03;5073651;28;19960;-72
2023/12/04 02:04:21;;;;;;;;;;;;;;;-1.10;80.50;100425.66;5073950;28;19920;-72
2023/12/04 02:06:51;;;;;;;;;;;;;;;-1.18;80.70;100431.91;5074167;28;20027;-72
2023/12/04 02:09:20;;;;;;;;;;;;;;;-1.19;80.87;100430.16;5073814;28;19920;-72
2023/12/04 02:11:48;;;;;;;;;;;;;;;-1.10;80.69;100430.69;5073775;28;19924;-72
2023/12/04 02:14:17;;;;;;;;;;;;;;;-0.98;81.17;100422.22;5073784;28;19924;-72
2023/12/04 02:16:46;;;;;;;;;;;;;;;-0.88;81.06;100431.13;5074072;28;19920;-72
2023/12/04 02:19:15;;;;;;;;;;;;;;;-0.86;81.09;100427.06;5074576;28;19921;-73
2023/12/04 02:21:44;;;;;;;;;;;;;;;-0.94;81.14;100429.16;5073982;28;20378;-72
2023/12/04 02:24:14;;;;;;;;;;;;;;;-0.99;81.07;100434.69;5073697;28;19927;-72
2023/12/04 02:26:48;;;;;;;;;;;;;;;-1.08;81.07;100424.16;5072902;28;19920;-72
2023/12/04 02:29:22;;;;;;;;;;;;;;;-1.07;81.42;100425.84;5074127;28;19924;-72
2023/12/04 02:31:52;;;;;;;;;;;;;;;-1.09;81.37;100427.41;5074041;28;19921;-72
2023/12/04 02:34:22;;;;;;;;;;;;;;;-1.05;81.26;100431.81;5074223;28;19926;-72
2023/12/04 02:36:51;;;;;;;;;;;;;;;-1.08;81.25;100429.16;5073844;28;19991;-72
2023/12/04 02:39:22;;;;;;;;;;;;;;;-1.11;81.53;100433.97;5089531;28;20362;-72
2023/12/04 02:41:51;;;;;;;;;;;;;;;-1.11;81.59;100434.84;5072481;28;19920;-73
2023/12/04 02:44:20;;;;;;;;;;;;;;;-1.18;81.51;100432.78;5073600;28;20423;-72
2023/12/04 02:46:48;;;;;;;;;;;;;;;-1.25;81.71;100439.84;5073858;28;20005;-73
2023/12/04 02:49:17;;;;;;;;;;;;;;;-1.30;81.87;100436.19;5073802;28;19946;-72
2023/12/04 02:51:45;;;;;;;;;;;;;;;-1.34;81.87;100441.81;5073380;28;19920;-72
2023/12/04 02:54:14;;;;;;;;;;;;;;;-1.39;82.03;100434.88;5075641;28;19955;-72
2023/12/04 02:56:44;;;;;;;;;;;;;;;-1.38;82.03;100438.25;5077328;28;19920;-72
2023/12/04 02:59:13;;;;;;;;;;;;;;;-1.40;82.24;100430.66;5077439;28;19920;-72
2023/12/04 03:01:41;;;;;;;;;;;;;;;-1.43;82.22;100435.50;5076775;28;19927;-72
2023/12/04 03:04:10;;;;;;;;;;;;;;;-1.45;82.29;100432.03;5092821;28;19955;-72
2023/12/04 03:06:38;;;;;;;;;;;;;;;-1.50;82.38;100423.38;5077116;28;20048;-72
2023/12/04 03:09:08;;;;;;;;;;;;;;;-1.53;82.84;100423.22;5077269;28;19956;-72
2023/12/04 03:11:36;;;;;;;;;;;;;;;-1.54;82.98;100431.50;5077258;28;20259;-72
2023/12/04 03:14:06;;;;;;;;;;;;;;;-1.55;82.94;100428.91;5076917;28;19921;-73
2023/12/04 03:16:35;;;;;;;;;;;;;;;-1.53;83.18;100433.22;5076050;28;19943;-72
2023/12/04 03:19:03;;;;;;;;;;;;;;;-1.51;83.02;100446.69;5077086;28;20277;-72
2023/12/04 03:21:32;;;;;;;;;;;;;;;-1.49;83.16;100445.13;5075784;28;19927;-72
2023/12/04 03:24:01;;;;;;;;;;;;;;;-1.46;83.24;100450.31;5075387;28;19928;-72
2023/12/04 03:26:29;;;;;;;;;;;;;;;-1.41;83.51;100453.97;5092442;28;19924;-72
2023/12/04 03:28:58;;;;;;;;;;;;;;;-1.29;83.38;100452.94;5077165;28;20007;-72
2023/12/04 03:31:28;;;;;;;;;;;;;;;-1.23;83.22;100454.19;5075654;28;20263;-72
2023/12/04 03:33:57;;;;;;;;;;;;;;;-1.21;82.99;100454.25;5076680;28;20315;-72
2023/12/04 03:36:26;;;;;;;;;;;;;;;-1.26;83.20;100453.13;5075471;28;20340;-72
2023/12/04 03:38:55;;;;;;;;;;;;;;;-1.23;83.12;100458.31;5075517;28;20351;-72
2023/12/04 03:41:23;;;;;;;;;;;;;;;-1.20;82.53;100461.84;5076699;28;19920;-72
2023/12/04 03:43:52;;;;;;;;;;;;;;;-1.19;82.92;100455.19;5075434;28;19959;-72
2023/12/04 03:46:21;;;;;;;;;;;;;;;-1.18;82.83;100439.41;5076451;28;20255;-72
2023/12/04 03:48:51;;;;;;;;;;;;;;;-1.22;82.79;100435.03;5076683;28;19930;-72
2023/12/04 03:51:19;;;;;;;;;;;;;;;-1.24;82.50;100449.06;5076557;28;19932;-72
2023/12/04 03:53:48;;;;;;;;;;;;;;;-1.24;82.73;100446.56;5076494;28;19921;-72
2023/12/04 03:56:17;;;;;;;;;;;;;;;-1.23;82.42;100443.28;5076237;28;19959;-72
2023/12/04 03:58:45;;;;;;;;;;;;;;;-1.22;82.13;100450.03;5075216;28;19927;-72
2023/12/04 04:01:14;;;;;;;;;;;;;;;-1.19;82.29;100445.19;5076054;28;20304;-72
2023/12/04 04:03:43;;;;;;;;;;;;;;;-1.22;82.32;100435.03;5076352;28;19920;-72
2023/12/04 04:06:15;;;;;;;;;;;;;;;-1.26;81.82;100433.09;5075481;28;19931;-72
2023/12/04 04:08:44;;;;;;;;;;;;;;;-1.32;82.02;100438.63;5076283;28;19920;-72
2023/12/04 04:11:12;;;;;;;;;;;;;;;-1.34;81.80;100429.31;5076465;28;19926;-72
2023/12/04 04:13:41;;;;;;;;;;;;;;;-1.37;82.04;100427.47;5076604;28;19967;-72
2023/12/04 04:16:14;;;;;;;;;;;;;;;-1.29;81.85;100425.41;5074575;28;19924;-72
2023/12/04 04:18:43;;;;;;;;;;;;;;;-1.28;81.97;100412.13;5076335;28;20007;-72
2023/12/04 04:21:11;;;;;;;;;;;;;;;-1.34;81.99;100417.63;5075923;28;20022;-72
2023/12/04 04:23:41;;;;;;;;;;;;;;;-1.34;81.80;100421.78;5075546;28;19924;-72
2023/12/04 04:26:10;;;;;;;;;;;;;;;-1.28;82.08;100424.63;5075481;28;19959;-72
2023/12/04 04:28:38;;;;;;;;;;;;;;;-1.27;81.96;100422.19;5075412;28;19920;-72
2023/12/04 04:31:07;;;;;;;;;;;;;;;-1.22;81.94;100425.84;5074451;28;20010;-73
2023/12/04 04:33:36;;;;;;;;;;;;;;;-1.22;81.70;100415.00;5075708;28;19920;-70
2023/12/04 04:36:05;;;;;;;;;;;;;;;-1.22;81.96;100430.00;5075556;28;19920;-72
2023/12/04 04:38:34;;;;;;;;;;;;;;;-1.26;81.80;100423.94;5075237;28;20294;-72
2023/12/04 04:41:04;;;;;;;;;;;;;;;-1.20;81.97;100423.44;5075758;28;20439;-72
2023/12/04 04:43:33;;;;;;;;;;;;;;;-1.16;81.83;100425.34;5074283;28;19921;-72
2023/12/04 04:46:01;;;;;;;;;;;;;;;-1.19;81.74;100421.00;5075114;28;19920;-72
2023/12/04 04:48:30;;;;;;;;;;;;;;;-1.17;81.42;100426.09;5075017;28;19924;-72
2023/12/04 04:50:59;;;;;;;;;;;;;;;-1.23;81.77;100418.25;5075344;28;19963;-72
2023/12/04 04:53:27;;;;;;;;;;;;;;;-1.23;81.57;100423.25;5090612;28;20010;-72
2023/12/04 04:55:56;;;;;;;;;;;;;;;-1.21;81.56;100431.72;5075155;28;19943;-72
2023/12/04 04:58:27;;;;;;;;;;;;;;;-1.22;81.66;100425.84;5074953;28;19924;-72
2023/12/04 05:00:56;;;;;;;;;;;;;;;-1.23;81.65;100428.28;5073595;28;20365;-72
2023/12/04 05:03:24;;;;;;;;;;;;;;;-1.25;81.68;100422.31;5074830;28;19928;-72
2023/12/04 05:05:53;;;;;;;;;;;;;;;-1.29;81.48;100432.91;5074955;28;19920;-73
2023/12/04 05:08:21;;;;;;;;;;;;;;;-1.33;81.41;100431.00;5074729;28;19963;-72
2023/12/04 05:10:50;;;;;;;;;;;;;;;-1.39;81.33;100436.50;5074642;28;19920;-72
2023/12/04 05:13:18;;;;;;;;;;;;;;;-1.39;81.36;100437.38;5074650;28;19924;-72
2023/12/04 05:15:48;;;;;;;;;;;;;;;-1.40;81.57;100425.66;5074609;28;19920;-72
2023/12/04 05:18:17;;;;;;;;;;;;;;;-1.44;81.77;100423.72;5073566;28;19930;-72
2023/12/04 05:20:45;;;;;;;;;;;;;;;-1.44;81.70;100431.25;5074818;28;20012;-72
2023/12/04 05:23:14;;;;;;;;;;;;;;;-1.40;81.69;100425.66;5074737;28;19920;-72
2023/12/04 05:25:42;;;;;;;;;;;;;;;-1.42;81.51;100422.19;5074592;28;19920;-72
2023/12/04 05:28:18;;;;;;;;;;;;;;;-1.45;81.57;100422.03;5073296;28;20003;-72
2023/12/04 05:30:48;;;;;;;;;;;;;;;-1.42;81.63;100417.19;5074633;28;19920;-72
2023/12/04 05:33:16;;;;;;;;;;;;;;;-1.33;81.62;100416.00;5073715;28;19933;-72
2023/12/04 05:35:45;;;;;;;;;;;;;;;-1.31;81.51;100409.44;5074490;28;20281;-72
2023/12/04 05:38:14;;;;;;;;;;;;;;;-1.30;81.58;100416.19;5074094;28;19927;-72
2023/12/04 05:40:42;;;;;;;;;;;;;;;-1.37;81.23;100409.97;5074200;28;20016;-72
2023/12/04 05:43:10;;;;;;;;;;;;;;;-1.42;81.53;100422.19;5074182;28;19993;-72
2023/12/04 05:45:40;;;;;;;;;;;;;;;-1.42;81.40;100422.19;5074177;28;19966;-72
2023/12/04 05:48:10;;;;;;;;;;;;;;;-1.43;81.41;100420.47;5074117;28;19928;-72
2023/12/04 05:50:38;;;;;;;;;;;;;;;-1.46;81.31;100415.28;5075123;28;19971;-72
2023/12/04 05:53:07;;;;;;;;;;;;;;;-1.46;81.46;100420.28;5074265;28;19963;-72
2023/12/04 05:55:36;;;;;;;;;;;;;;;-1.51;81.46;100416.66;5073982;28;19927;-72
2023/12/04 05:58:04;;;;;;;;;;;;;;;-1.55;81.34;100424.75;5074178;28;19920;-72
2023/12/04 06:00:33;;;;;;;;;;;;;;;-1.56;81.39;100413.00;5074259;28;20015;-72
2023/12/04 06:03:02;;;;;;;;;;;;;;;-1.53;81.49;100408.19;5073886;28;19930;-72
2023/12/04 06:05:31;;;;;;;;;;;;;;;-1.53;81.53;100413.19;5073912;28;19920;-72
2023/12/04 06:08:00;;;;;;;;;;;;;;;-1.64;81.13;100414.22;5073930;28;19921;-70
2023/12/04 06:10:28;;;;;;;;;;;;;;;-1.67;81.66;100419.03;5073912;28;19920;-72
2023/12/04 06:12:56;;;;;;;;;;;;;;;-1.64;81.97;100416.72;5074042;28;20248;-72
2023/12/04 06:15:24;;;;;;;;;;;;;;;-1.70;81.58;100416.34;5074179;28;19921;-72
2023/12/04 06:17:53;;;;;;;;;;;;;;;-1.70;81.70;100413.84;5073706;28;19927;-72
2023/12/04 06:20:21;;;;;;;;;;;;;;;-1.72;81.46;100414.53;5074067;28;20031;-72
2023/12/04 06:22:52;;;;;;;;;;;;;;;-1.75;81.62;100419.38;5073731;28;19927;-72
2023/12/04 06:25:21;;;;;;;;;;;;;;;-1.77;81.78;100421.75;5073687;28;19932;-72
2023/12/04 06:27:51;;;;;;;;;;;;;;;-1.78;81.67;100420.03;5073599;28;19920;-72
2023/12/04 06:30:20;;;;;;;;;;;;;;;-1.85;81.69;100417.94;5093409;28;19920;-72
2023/12/04 06:32:49;;;;;;;;;;;;;;;-1.86;81.53;100421.22;5078326;28;19920;-72
2023/12/04 06:35:18;;;;;;;;;;;;;;;-1.93;81.29;100430.75;5077837;28;20401;-72
2023/12/04 06:37:49;;;;;;;;;;;;;;;-2.00;81.16;100424.53;5077880;28;20385;-72
2023/12/04 06:40:19;;;;;;;;;;;;;;;-2.09;81.38;100419.81;5078134;28;19924;-72
2023/12/04 06:42:48;;;;;;;;;;;;;;;-2.14;81.48;100422.84;5077757;28;19920;-71
2023/12/04 06:45:17;;;;;;;;;;;;;;;-2.17;81.24;100427.63;5077536;28;19924;-72
2023/12/04 06:47:46;;;;;;;;;;;;;;;-2.20;81.23;100437.44;5077795;28;20358;-72
2023/12/04 06:50:16;;;;;;;;;;;;;;;-2.18;81.36;100439.25;5077746;28;19921;-72
2023/12/04 06:52:44;;;;;;;;;;;;;;;-2.17;81.44;100445.13;5076345;28;19970;-72
2023/12/04 06:55:13;;;;;;;;;;;;;;;-2.16;81.52;100449.38;5077566;28;19925;-72
2023/12/04 06:57:43;;;;;;;;;;;;;;;-2.15;81.49;100446.97;5078093;28;19927;-71
2023/12/04 07:00:14;;;;;;;;;;;;;;;-2.13;81.61;100455.41;5077910;28;19921;-70
2023/12/04 07:02:51;;;;;;;;;;;;;;;-2.09;81.63;100441.47;5076559;28;19964;-72
2023/12/04 07:05:20;;;;;;;;;;;;;;;-2.09;81.55;100456.47;5075913;28;19920;-72
2023/12/04 07:07:49;;;;;;;;;;;;;;;-2.08;81.60;100455.69;5076938;28;19924;-72
2023/12/04 07:10:18;;;;;;;;;;;;;;;-2.05;81.69;100449.25;5076853;28;19920;-72
2023/12/04 07:12:48;;;;;;;;;;;;;;;-2.03;81.67;100456.84;5077499;28;19921;-72
2023/12/04 07:15:17;;;;;;;;;;;;;;;-1.98;81.56;100455.50;5076951;28;19924;-70
2023/12/04 07:17:45;;;;;;;;;;;;;;;-1.88;81.83;100457.78;5076925;28;19920;-72
2023/12/04 07:20:14;;;;;;;;;;;;;;;-1.75;82.04;100450.22;5077098;28;19927;-72
2023/12/04 07:22:42;;;;;;;;;;;;;;;-1.61;82.09;100459.41;5077037;28;19978;-73
2023/12/04 07:25:11;;;;;;;;;;;;;;;-1.49;82.36;100454.28;5075767;28;19920;-73
2023/12/04 07:27:39;;;;;;;;;;;;;;;-1.26;82.37;100460.63;5076694;28;19942;-72
2023/12/04 07:30:10;;;;;;;;;;;;;;;-1.15;82.21;100462.13;5076513;28;19963;-72
2023/12/04 07:32:39;;;;;;;;;;;;;;;-1.11;82.21;100454.00;5076526;28;19920;-73
2023/12/04 07:35:08;;;;;;;;;;;;;;;-1.05;82.27;100459.34;5077114;28;19926;-73
2023/12/04 07:37:36;;;;;;;;;;;;;;;-0.96;82.01;100450.72;5076435;28;20420;-72
2023/12/04 07:40:08;;;;;;;;;;;;;;;-0.81;81.97;100450.72;5074598;28;19921;-72
2023/12/04 07:42:37;;;;;;;;;;;;;;;-0.75;81.83;100456.97;5076368;28;19960;-73
2023/12/04 07:45:06;;;;;;;;;;;;;;;-0.60;82.00;100451.94;5076288;28;19927;-72
2023/12/04 07:47:36;;;;;;;;;;;;;;;-0.50;81.38;100459.19;5076774;28;20342;-72
2023/12/04 07:50:05;;;;;;;;;;;;;;;-0.46;81.45;100457.72;5076470;28;20033;-72
2023/12/04 07:52:33;;;;;;;;;;;;;;;-0.37;80.64;100469.13;5076219;28;19924;-72
2023/12/04 07:55:02;;;;;;;;;;;;;;;-0.31;80.51;100466.94;5076146;28;19920;-72
2023/12/04 07:57:30;;;;;;;;;;;;;;;-0.35;80.01;100462.53;5076465;28;19920;-72
2023/12/04 07:59:59;;;;;;;;;;;;;;;-0.26;79.54;100455.50;5076316;28;19920;-72
2023/12/04 08:02:27;;;;;;;;;;;;;;;-0.16;79.46;100457.75;5075974;28;19920;-72
2023/12/04 08:04:57;;;;;;;;;;;;;;;-0.17;79.12;100456.00;5076202;28;19921;-72
2023/12/04 08:07:26;;;;;;;;;;;;;;;-0.11;79.30;100456.34;5076543;28;19926;-72
2023/12/04 08:09:54;;;;;;;;;;;;;;;0.03;79.29;100461.22;5076210;28;19927;-72
2023/12/04 08:12:23;;;;;;;;;;;;;;;0.05;78.12;100454.66;5076161;28;19920;-72
2023/12/04 08:14:52;;;;;;;;;;;;;;;-0.03;77.48;100457.63;5076019;28;19920;-73
2023/12/04 08:17:21;;;;;;;;;;;;;;;0.07;77.92;100460.63;5075828;28;19921;-73
2023/12/04 08:19:49;;;;;;;;;;;;;;;0.10;77.12;100450.75;5075855;28;20312;-73
2023/12/04 08:22:22;;;;;;;;;;;;;;;0.25;77.44;100451.53;5075094;28;19921;-73
2023/12/04 08:24:51;;;;;;;;;;;;;;;0.31;77.25;100457.72;5076267;28;19920;-72
2023/12/04 08:27:19;;;;;;;;;;;;;;;0.32;77.06;100453.56;5090805;28;20380;-72
2023/12/04 08:29:48;;;;;;;;;;;;;;;0.35;76.72;100453.75;5075269;28;20015;-73
2023/12/04 08:32:16;;;;;;;;;;;;;;;0.31;76.05;100461.91;5075375;28;19921;-73
2023/12/04 08:34:46;;;;;;;;;;;;;;;0.36;76.39;100461.34;5075724;28;19920;-73
2023/12/04 08:37:14;;;;;;;;;;;;;;;0.32;76.06;100453.56;5075465;28;20010;-72
2023/12/04 08:39:44;;;;;;;;;;;;;;;0.40;75.29;100453.22;5075819;28;20346;-72
2023/12/04 08:42:13;;;;;;;;;;;;;;;0.39;75.65;100453.13;5075557;28;19920;-72
2023/12/04 08:44:50;;;;;;;;;;;;;;;0.42;76.02;100455.78;5075377;28;19946;-72
2023/12/04 08:47:19;;;;;;;;;;;;;;;0.54;75.65;100454.78;5074958;28;20011;-72
2023/12/04 08:53:28;;;;;;;;;;;;;;;0.53;74.42;100453.03;5053951;28;19938;-72
2023/12/04 08:56:00;;;;;;;;;;;;;;;0.61;74.36;100453.44;5055016;28;19921;-73
2023/12/04 08:58:30;;;;;;;;;;;;;;;0.72;74.29;100442.25;5054153;28;19952;-72
2023/12/04 09:00:59;;;;;;;;;;;;;;;0.95;73.41;100436.75;5054260;28;19948;-74
2023/12/04 09:03:28;;;;;;;;;;;;;;;1.00;73.61;100450.41;5054651;28;19927;-73
2023/12/04 09:06:00;;;;;;;;;;;;;;;1.01;72.93;100447.09;5053541;28;20433;-74
2023/12/04 09:08:28;;;;;;;;;;;;;;;0.80;71.75;100446.03;5053391;28;19951;-74
2023/12/04 09:11:08;;;;;;;;;;;;;;;0.81;71.67;100437.72;5054893;28;19921;-74
2023/12/04 09:13:51;;;;;;;;;;;;;;;1.06;71.68;100452.34;5054875;28;19990;-75
2023/12/04 09:16:19;;;;;;;;;;;;;;;1.20;71.73;100436.31;5054973;28;20010;-75
2023/12/04 09:18:48;;;;;;;;;;;;;;;1.25;71.81;100438.22;5053257;28;19927;-75
2023/12/04 09:21:16;;;;;;;;;;;;;;;1.45;71.71;100435.81;5054337;28;19920;-74
2023/12/04 09:23:49;;;;;;;;;;;;;;;1.43;70.44;100438.25;5054682;28;19928;-74
2023/12/04 09:26:20;;;;;;;;;;;;;;;1.43;70.45;100439.91;5053211;28;20011;-74
2023/12/04 09:28:48;;;;;;;;;;;;;;;1.56;70.03;100434.69;5054838;28;20027;-74
2023/12/04 09:31:18;;;;;;;;;;;;;;;1.48;69.62;100436.81;5054555;28;19921;-74
2023/12/04 09:33:47;;;;;;;;;;;;;;;1.59;69.14;100439.81;5054215;28;20015;-74
2023/12/04 09:36:15;;;;;;;;;;;;;;;1.59;69.24;100424.75;5054589;28;19950;-74
2023/12/04 09:38:45;;;;;;;;;;;;;;;1.82;68.94;100424.16;5054541;28;19921;-74
2023/12/04 09:41:13;;;;;;;;;;;;;;;1.91;68.10;100414.50;5053171;28;19920;-74
2023/12/04 09:43:45;;;;;;;;;;;;;;;1.95;68.06;100409.69;5054016;28;19943;-75
2023/12/04 09:46:14;;;;;;;;;;;;;;;1.86;67.95;100405.88;5053377;28;20382;-75
2023/12/04 09:48:44;;;;;;;;;;;;;;;1.76;67.88;100403.75;5053146;28;20397;-73
2023/12/04 09:51:13;;;;;;;;;;;;;;;1.65;68.34;100397.38;5053975;28;19921;-76
2023/12/04 09:53:42;;;;;;;;;;;;;;;1.78;68.60;100395.47;5054262;28;19921;-77
2023/12/04 09:56:12;;;;;;;;;;;;;;;1.79;67.71;100384.63;5054214;28;20365;-76
2023/12/04 09:58:44;;;;;;;;;;;;;;;2.06;67.90;100382.47;5053126;28;19921;-75
2023/12/04 10:01:12;;;;;;;;;;;;;;;2.05;66.83;100383.25;5052638;28;19924;-75
2023/12/04 10:03:41;;;;;;;;;;;;;;;1.83;66.82;100378.06;5053861;28;19927;-75
2023/12/04 10:06:09;;;;;;;;;;;;;;;1.81;66.79;100372.09;5053148;28;20026;-75
2023/12/04 10:08:38;;;;;;;;;;;;;;;2.02;67.70;100363.84;5053720;28;20007;-74
2023/12/04 10:11:07;;;;;;;;;;;;;;;2.18;66.75;100364.53;5052610;28;19982;-76
2023/12/04 10:13:35;;;;;;;;;;;;;;;2.11;66.22;100358.38;5052387;28;19931;-76
2023/12/04 10:16:35;;;;;;;;;;;;;;;1.99;65.95;100357.84;5053611;28;19921;-76
2023/12/04 10:19:15;;;;;;;;;;;;;;;2.21;66.08;100355.44;5053772;28;19927;-77
2023/12/04 10:21:46;;;;;;;;;;;;;;;2.52;66.20;100348.38;5054269;28;19920;-76
2023/12/04 10:24:27;;;;;;;;;;;;;;;2.57;65.43;100339.34;5053684;28;19927;-76
2023/12/04 10:26:57;;;;;;;;;;;;;;;2.86;65.50;100338.03;5054027;28;20027;-76
2023/12/04 10:29:28;;;;;;;;;;;;;;;2.92;65.24;100340.81;5052534;28;19932;-76
2023/12/04 10:32:00;;;;;;;;;;;;;;;3.08;65.33;100338.09;5053888;28;20389;-76
2023/12/04 10:34:33;;;;;;;;;;;;;;;2.94;65.36;100334.16;5053740;28;19921;-76
2023/12/04 10:37:06;;;;;;;;;;;;;;;2.77;65.06;100334.28;5053543;28;20286;-77
2023/12/04 10:39:46;;;;;;;;;;;;;;;2.57;64.68;100326.75;5053277;28;19920;-75
2023/12/04 10:42:24;;;;;;;;;;;;;;;2.61;64.94;100325.25;5053166;28;19921;-76
2023/12/04 10:44:53;;;;;;;;;;;;;;;2.89;64.74;100327.19;5052243;28;19978;-77
2023/12/04 10:47:22;;;;;;;;;;;;;;;2.78;64.31;100323.41;5053325;28;19920;-77
2023/12/04 10:49:51;;;;;;;;;;;;;;;2.89;63.74;100315.47;5053399;28;19921;-76
2023/12/04 10:52:21;;;;;;;;;;;;;;;2.70;64.04;100308.84;5051937;28;19921;-76
2023/12/04 10:54:50;;;;;;;;;;;;;;;2.40;63.34;100301.69;5052047;28;19920;-76
2023/12/04 10:57:22;;;;;;;;;;;;;;;2.29;63.65;100297.84;5053956;28;20015;-76
2023/12/04 10:59:53;;;;;;;;;;;;;;;2.32;64.02;100297.97;5053312;28;19924;-76
2023/12/04 11:02:22;;;;;;;;;;;;;;;2.36;63.99;100299.81;5053163;28;19921;-76
2023/12/04 11:04:53;;;;;;;;;;;;;;;2.28;64.18;100286.91;5053229;28;19921;-76
2023/12/04 11:07:27;;;;;;;;;;;;;;;2.32;64.40;100288.78;5052413;28;19921;-76
2023/12/04 11:09:57;;;;;;;;;;;;;;;2.71;64.88;100287.88;5052361;28;19920;-77
2023/12/04 11:12:27;;;;;;;;;;;;;;;2.85;65.10;100277.47;5052354;28;19943;-75
2023/12/04 11:14:58;;;;;;;;;;;;;;;3.17;64.71;100272.00;5055047;28;19978;-75
2023/12/04 11:17:30;;;;;;;;;;;;;;;3.42;64.21;100274.66;5057141;28;19924;-77
2023/12/04 11:20:01;;;;;;;;;;;;;;;3.69;64.30;100260.53;5056765;28;19920;-75
2023/12/04 11:22:32;;;;;;;;;;;;;;;3.83;63.93;100259.34;5058405;28;19920;-75
2023/12/04 11:25:01;;;;;;;;;;;;;;;3.86;63.67;100248.50;5056811;28;19920;-75
2023/12/04 11:27:33;;;;;;;;;;;;;;;4.21;63.83;100252.22;5057269;28;19921;-74
2023/12/04 11:30:03;;;;;;;;;;;;;;;4.37;63.17;100249.38;5056619;28;19920;-76
2023/12/04 11:32:31;;;;;;;;;;;;;;;4.46;62.71;100244.66;5056890;28;19935;-75
2023/12/04 11:35:02;;;;;;;;;;;;;;;4.36;61.27;100242.63;5056335;28;19920;-74
2023/12/04 11:37:33;;;;;;;;;;;;;;;4.33;61.44;100233.28;5056793;28;20374;-76
2023/12/04 11:40:04;;;;;;;;;;;;;;;4.44;60.82;100228.59;5056251;28;20023;-76
2023/12/04 11:42:33;;;;;;;;;;;;;;;4.44;60.27;100237.00;5055526;28;19921;-76
2023/12/04 11:45:02;;;;;;;;;;;;;;;4.53;60.40;100226.34;5056527;28;19956;-77
2023/12/04 11:47:32;;;;;;;;;;;;;;;4.63;59.48;100223.31;5054972;28;20259;-78
2023/12/04 11:50:01;;;;;;;;;;;;;;;4.64;59.17;100219.94;5056186;28;20004;-75
2023/12/04 11:52:38;;;;;;;;;;;;;;;4.62;59.07;100221.56;5056456;28;19921;-76
2023/12/04 11:55:07;;;;;;;;;;;;;;;4.59;58.05;100213.88;5056773;28;19927;-75
2023/12/04 11:57:37;;;;;;;;;;;;;;;4.55;58.00;100220.53;5054840;28;19921;-76
2023/12/04 12:00:09;;;;;;;;;;;;;;;4.29;57.37;100215.44;5056011;28;19921;-78
2023/12/04 12:02:40;;;;;;;;;;;;;;;4.00;56.83;100212.81;5055913;28;19920;-75
2023/12/04 12:05:28;;;;;;;;;;;;;;;3.89;57.64;100209.06;5038465;28;20015;-78
2023/12/04 12:08:00;;;;;;;;;;;;;;;4.24;57.22;100204.34;5056234;28;19925;-76
2023/12/04 12:10:29;;;;;;;;;;;;;;;4.56;56.65;100211.25;5056213;28;19921;-78
2023/12/04 12:12:58;;;;;;;;;;;;;;;4.53;56.23;100199.41;5055926;28;19936;-77
2023/12/04 12:15:27;;;;;;;;;;;;;;;4.72;56.02;100199.16;5055979;28;19920;-78
2023/12/04 12:17:55;;;;;;;;;;;;;;;4.72;55.93;100189.06;5054801;28;19982;-77
2023/12/04 12:20:24;;;;;;;;;;;;;;;4.62;55.53;100183.66;5053962;28;19971;-77
2023/12/04 12:22:53;;;;;;;;;;;;;;;4.59;55.61;100181.03;5055498;28;19920;-77
2023/12/04 12:25:26;;;;;;;;;;;;;;;4.78;55.90;100172.31;5055925;28;19920;-76
2023/12/04 12:27:55;;;;;;;;;;;;;;;4.98;55.52;100164.53;5055078;28;19955;-77
2023/12/04 12:30:24;;;;;;;;;;;;;;;5.12;55.63;100155.66;5054561;28;19921;-77
2023/12/04 12:32:52;;;;;;;;;;;;;;;5.21;55.42;100147.47;5055470;28;19921;-76
2023/12/04 12:35:23;;;;;;;;;;;;;;;5.22;54.87;100147.53;5054235;28;20015;-76
2023/12/04 12:37:53;;;;;;;;;;;;;;;5.13;54.83;100141.34;5037648;28;19927;-77
2023/12/04 12:40:23;;;;;;;;;;;;;;;4.85;54.73;100139.69;5055471;28;19921;-77
2023/12/04 12:42:52;;;;;;;;;;;;;;;4.54;55.13;100137.06;5055554;28;19920;-76
2023/12/04 12:45:21;;;;;;;;;;;;;;;4.17;55.62;100134.22;5055434;28;19920;-78
2023/12/04 12:47:51;;;;;;;;;;;;;;;3.74;56.61;100127.75;5055518;28;19927;-78
2023/12/04 12:50:21;;;;;;;;;;;;;;;3.36;58.05;100123.94;5055126;28;19921;-76
2023/12/04 12:52:50;;;;;;;;;;;;;;;3.06;58.67;100124.50;5054909;28;19967;-77
2023/12/04 12:55:25;;;;;;;;;;;;;;;2.69;59.95;100123.16;5054891;28;19927;-75